createdAt,value
2019-01-04T00:00:13.211Z,35.6
2019-01-04T00:01:13.266Z,35.8
2019-01-04T00:02:13.191Z,35.6
2019-01-04T00:03:13.309Z,35.5
2019-01-04T00:04:13.317Z,35.7
2019-01-04T00:05:13.175Z,35.6
2019-01-04T00:06:13.208Z,35.4
2019-01-04T00:07:13.198Z,35.2
2019-01-04T00:08:13.257Z,35.1
2019-01-04T00:09:13.190Z,35.2
2019-01-04T00:10:13.198Z,35
2019-01-04T00:11:13.170Z,35
2019-01-04T00:12:13.237Z,35.1
2019-01-04T00:13:13.193Z,35
2019-01-04T00:14:13.269Z,34.9
2019-01-04T00:15:13.265Z,35
2019-01-04T00:16:13.167Z,34.8
2019-01-04T00:17:13.169Z,34.6
2019-01-04T00:18:13.189Z,34.1
2019-01-04T00:19:13.255Z,33.9
2019-01-04T00:20:13.189Z,33.7
2019-01-04T00:21:13.198Z,33.3
2019-01-04T00:22:13.168Z,33
2019-01-04T00:23:13.190Z,32.7
2019-01-04T00:24:13.264Z,32.6
2019-01-04T00:25:13.195Z,32.7
2019-01-04T00:26:13.257Z,32.7
2019-01-04T00:27:13.237Z,32.6
2019-01-04T00:28:13.184Z,32.3
2019-01-04T00:29:13.189Z,32
2019-01-04T00:30:13.252Z,31.6
2019-01-04T00:31:13.183Z,31.2
2019-01-04T00:32:13.179Z,30.9
2019-01-04T00:33:13.237Z,30.6
2019-01-04T00:34:13.170Z,30.5
2019-01-04T00:35:13.185Z,30.2
2019-01-04T00:36:13.190Z,29.9
2019-01-04T00:37:13.183Z,29.4
2019-01-04T00:38:13.243Z,29.3
2019-01-04T00:39:13.184Z,29.3
2019-01-04T00:40:13.191Z,29.5
2019-01-04T00:41:13.178Z,29.7
2019-01-04T00:42:13.182Z,29.5
2019-01-04T00:43:13.262Z,29.7
2019-01-04T00:44:13.167Z,29.7
2019-01-04T00:45:13.179Z,29.4
2019-01-04T00:46:13.169Z,29.2
2019-01-04T00:47:13.188Z,28.9
2019-01-04T00:48:13.248Z,28.8
2019-01-04T00:49:13.153Z,29
2019-01-04T00:50:13.308Z,29.3
2019-01-04T00:51:13.254Z,29.7
2019-01-04T00:52:13.198Z,30
2019-01-04T00:53:13.186Z,30.2
2019-01-04T00:54:13.229Z,30.5
2019-01-04T00:55:13.152Z,30.9
2019-01-04T00:56:13.179Z,31.3
2019-01-04T00:57:13.186Z,31.8
2019-01-04T00:58:13.172Z,32.3
2019-01-04T00:59:13.230Z,33
2019-01-04T01:00:13.156Z,33.6
2019-01-04T01:01:13.164Z,34.1
2019-01-04T01:02:13.171Z,34.9
2019-01-04T01:03:13.177Z,35.8
2019-01-04T01:04:13.244Z,36.7
2019-01-04T01:05:13.162Z,37.6
2019-01-04T01:06:13.228Z,38.6
2019-01-04T01:07:13.166Z,39.2
2019-01-04T01:08:13.162Z,39.8
2019-01-04T01:09:13.182Z,40.1
2019-01-04T01:10:13.166Z,40.6
2019-01-04T01:11:13.222Z,40.9
2019-01-04T01:12:13.164Z,41.1
2019-01-04T01:13:13.165Z,41.4
2019-01-04T01:14:13.171Z,41.6
2019-01-04T01:15:13.169Z,41.5
2019-01-04T01:16:13.232Z,41.8
2019-01-04T01:17:13.164Z,41.8
2019-01-04T01:18:13.205Z,41.6
2019-01-04T01:19:13.162Z,41.5
2019-01-04T01:20:13.168Z,41.5
2019-01-04T01:21:13.236Z,41.4
2019-01-04T01:22:13.148Z,41
2019-01-04T01:23:13.224Z,40.7
2019-01-04T01:24:13.238Z,40.4
2019-01-04T01:25:13.161Z,40.1
2019-01-04T01:26:13.158Z,39.8
2019-01-04T01:27:13.216Z,39.5
2019-01-04T01:28:13.138Z,39.1
2019-01-04T01:29:13.158Z,38.8
2019-01-04T01:30:13.157Z,38.5
2019-01-04T01:31:13.163Z,37.9
2019-01-04T01:32:13.237Z,37.6
2019-01-04T01:33:13.149Z,37
2019-01-04T01:34:13.215Z,36.6
2019-01-04T01:35:13.224Z,36.3
2019-01-04T01:36:13.145Z,36
2019-01-04T01:37:13.155Z,35.5
2019-01-04T01:38:13.140Z,35.1
2019-01-04T01:39:13.147Z,34.7
2019-01-04T01:40:13.216Z,34.1
2019-01-04T01:41:13.158Z,33.7
2019-01-04T01:42:13.150Z,33.4
2019-01-04T01:43:13.228Z,33
2019-01-04T01:44:13.134Z,32.8
2019-01-04T01:45:13.150Z,32.5
2019-01-04T01:46:13.149Z,32.3
2019-01-04T01:47:13.209Z,32
2019-01-04T01:48:13.163Z,31.6
2019-01-04T01:49:13.125Z,31.5
2019-01-04T01:50:13.197Z,31.6
2019-01-04T01:51:13.142Z,31.6
2019-01-04T01:52:13.158Z,31.7
2019-01-04T01:53:13.141Z,32.1
2019-01-04T01:54:13.132Z,32.4
2019-01-04T01:55:13.145Z,32.6
2019-01-04T01:56:13.138Z,32.7
2019-01-04T01:57:13.150Z,32.7
2019-01-04T01:58:13.207Z,32.7
2019-01-04T01:59:13.220Z,32.8
2019-01-04T02:00:13.141Z,33.1
2019-01-04T02:01:13.146Z,33.2
2019-01-04T02:02:13.141Z,33.5
2019-01-04T02:03:13.136Z,33.7
2019-01-04T02:04:13.209Z,33.6
2019-01-04T02:05:13.117Z,33.3
2019-01-04T02:06:13.150Z,32.9
2019-01-04T02:07:13.133Z,32.6
2019-01-04T02:08:13.201Z,32.4
2019-01-04T02:09:13.157Z,32.2
2019-01-04T02:10:13.123Z,32.1
2019-01-04T02:11:13.135Z,31.9
2019-01-04T02:12:13.211Z,31.4
2019-01-04T02:13:13.162Z,31.1
2019-01-04T02:14:13.137Z,30.9
2019-01-04T02:15:13.137Z,30.5
2019-01-04T02:16:13.182Z,30.3
2019-01-04T02:17:13.131Z,30.3
2019-01-04T02:18:13.127Z,30.4
2019-01-04T02:19:13.137Z,30.5
2019-01-04T02:20:13.203Z,30.5
2019-01-04T02:21:13.135Z,30.4
2019-01-04T02:22:13.133Z,30.3
2019-01-04T02:23:13.136Z,30.4
2019-01-04T02:24:13.226Z,30.1
2019-01-04T02:25:13.200Z,30
2019-01-04T02:26:13.130Z,29.9
2019-01-04T02:27:13.113Z,29.8
2019-01-04T02:28:13.132Z,29.8
2019-01-04T02:29:13.133Z,29.7
2019-01-04T02:30:13.217Z,29.9
2019-01-04T02:31:13.131Z,30.1
2019-01-04T02:32:13.139Z,30.2
2019-01-04T02:33:13.116Z,30.6
2019-01-04T02:34:13.123Z,30.8
2019-01-04T02:35:13.179Z,31.4
2019-01-04T02:36:13.212Z,31.9
2019-01-04T02:37:13.212Z,32.3
2019-01-04T02:38:13.111Z,32.5
2019-01-04T02:39:13.124Z,32.5
2019-01-04T02:40:13.114Z,32.6
2019-01-04T02:41:13.192Z,32.8
2019-01-04T02:42:13.126Z,33.1
2019-01-04T02:43:13.187Z,33.2
2019-01-04T02:44:13.099Z,33.3
2019-01-04T02:45:13.115Z,33.5
2019-01-04T02:46:13.182Z,33.4
2019-01-04T02:47:13.134Z,33.2
2019-01-04T02:48:13.114Z,33.4
2019-01-04T02:49:13.163Z,33.3
2019-01-04T02:50:13.130Z,33.1
2019-01-04T02:51:13.105Z,33
2019-01-04T02:52:13.193Z,32.9
2019-01-04T02:53:13.193Z,32.8
2019-01-04T02:54:13.091Z,32.7
2019-01-04T02:55:13.106Z,32.7
2019-01-04T02:56:13.110Z,32.8
2019-01-04T02:57:13.123Z,32.6
2019-01-04T02:58:13.169Z,32.6
2019-01-04T02:59:13.119Z,32.6
2019-01-04T03:00:13.111Z,32.2
2019-01-04T03:01:13.107Z,32
2019-01-04T03:02:13.116Z,32
2019-01-04T03:03:13.190Z,32.1
2019-01-04T03:04:13.127Z,32.1
2019-01-04T03:05:13.104Z,32.2
2019-01-04T03:06:13.107Z,32.3
2019-01-04T03:07:13.102Z,32.4
2019-01-04T03:08:13.185Z,32.5
2019-01-04T03:09:13.245Z,32.5
2019-01-04T03:10:13.108Z,32.6
2019-01-04T03:11:13.090Z,32.7
2019-01-04T03:12:13.114Z,33.1
2019-01-04T03:13:13.189Z,33.2
2019-01-04T03:14:13.112Z,33.6
2019-01-04T03:15:13.107Z,33.5
2019-01-04T03:16:13.092Z,33.7
2019-01-04T03:17:13.097Z,33.7
2019-01-04T03:18:13.209Z,33.8
2019-01-04T03:19:13.105Z,33.9
2019-01-04T03:20:13.107Z,34.2
2019-01-04T03:21:13.177Z,34.3
2019-01-04T03:22:13.088Z,34.4
2019-01-04T03:23:13.098Z,34.7
2019-01-04T03:24:13.177Z,35.2
2019-01-04T03:25:13.100Z,35.7
2019-01-04T03:26:13.104Z,36.1
2019-01-04T03:27:13.091Z,36.3
2019-01-04T03:28:13.123Z,36.7
2019-01-04T03:29:13.167Z,37
2019-01-04T03:30:13.104Z,37.4
2019-01-04T03:31:13.107Z,37.8
2019-01-04T03:32:13.147Z,38
2019-01-04T03:33:13.087Z,38.2
2019-01-04T03:34:13.095Z,38.3
2019-01-04T03:35:13.105Z,38.2
2019-01-04T03:36:13.102Z,38.1
2019-01-04T03:37:13.164Z,37.7
2019-01-04T03:38:13.091Z,37.3
2019-01-04T03:39:13.101Z,36.9
2019-01-04T03:40:13.172Z,36.6
2019-01-04T03:41:13.099Z,36.2
2019-01-04T03:42:13.165Z,35.6
2019-01-04T03:43:13.089Z,35.1
2019-01-04T03:44:13.167Z,34.3
2019-01-04T03:45:13.098Z,33.3
2019-01-04T03:46:13.096Z,32.4
2019-01-04T03:47:13.148Z,31.7
2019-01-04T03:48:13.136Z,30.8
2019-01-04T03:49:13.145Z,30.2
2019-01-04T03:50:13.097Z,29.5
2019-01-04T03:51:13.082Z,29
2019-01-04T03:52:13.081Z,28.9
2019-01-04T03:53:13.160Z,28.8
2019-01-04T03:54:13.079Z,28.9
2019-01-04T03:55:13.079Z,29.2
2019-01-04T03:56:13.079Z,29.8
2019-01-04T03:57:13.088Z,30.1
2019-01-04T03:58:13.139Z,30.1
2019-01-04T03:59:13.087Z,30
2019-01-04T04:00:13.073Z,30.2
2019-01-04T04:01:13.088Z,30.3
2019-01-04T04:02:13.087Z,30
2019-01-04T04:03:13.136Z,29.7
2019-01-04T04:04:13.205Z,29.5
2019-01-04T04:05:13.072Z,29.2
2019-01-04T04:06:13.063Z,28.8
2019-01-04T04:07:13.088Z,28.6
2019-01-04T04:08:13.136Z,28.2
2019-01-04T04:09:13.090Z,27.8
2019-01-04T04:10:13.072Z,27.3
2019-01-04T04:11:13.062Z,26.8
2019-01-04T04:12:13.164Z,26.2
2019-01-04T04:13:13.078Z,25.9
2019-01-04T04:14:13.083Z,25.9
2019-01-04T04:15:13.085Z,25.9
2019-01-04T04:16:13.070Z,25.8
2019-01-04T04:17:13.136Z,25.4
2019-01-04T04:18:13.077Z,25.4
2019-01-04T04:19:13.086Z,25.4
2019-01-04T04:20:13.082Z,25.1
2019-01-04T04:21:13.190Z,24.8
2019-01-04T04:22:13.064Z,25
2019-01-04T04:23:13.074Z,25
2019-01-04T04:24:13.076Z,25.5
2019-01-04T04:25:13.079Z,26
2019-01-04T04:26:13.148Z,26.4
2019-01-04T04:27:13.065Z,26.8
2019-01-04T04:28:13.073Z,27.2
2019-01-04T04:29:13.063Z,27.6
2019-01-04T04:30:13.072Z,28.3
2019-01-04T04:31:13.143Z,28.4
2019-01-04T04:32:13.061Z,29
2019-01-04T04:33:13.073Z,29.5
2019-01-04T04:34:13.075Z,30.2
2019-01-04T04:35:13.065Z,30.9
2019-01-04T04:36:13.137Z,31.6
2019-01-04T04:37:13.067Z,32.5
2019-01-04T04:38:13.052Z,33.5
2019-01-04T04:39:13.067Z,33.9
2019-01-04T04:40:13.066Z,34.4
2019-01-04T04:41:13.067Z,34.6
2019-01-04T04:42:13.123Z,35.1
2019-01-04T04:43:13.126Z,35
2019-01-04T04:44:13.073Z,35.1
2019-01-04T04:45:13.070Z,35.4
2019-01-04T04:46:13.128Z,35.7
2019-01-04T04:47:13.066Z,35.8
2019-01-04T04:48:13.057Z,36
2019-01-04T04:49:13.044Z,36
2019-01-04T04:50:13.061Z,36.3
2019-01-04T04:51:13.135Z,36.7
2019-01-04T04:52:13.060Z,36.6
2019-01-04T04:53:13.066Z,36.5
2019-01-04T04:54:13.049Z,36.1
2019-01-04T04:55:13.052Z,36.2
2019-01-04T04:56:13.063Z,36.4
2019-01-04T04:57:13.121Z,36.6
2019-01-04T04:58:13.062Z,36.6
2019-01-04T04:59:13.122Z,37
2019-01-04T05:00:13.047Z,37.8
2019-01-04T05:01:13.101Z,38.7
2019-01-04T05:02:13.061Z,39.1
2019-01-04T05:03:13.068Z,39.5
2019-01-04T05:04:13.051Z,39.8
2019-01-04T05:05:13.103Z,40.2
2019-01-04T05:06:13.049Z,41.4
2019-01-04T05:07:13.045Z,42
2019-01-04T05:08:13.054Z,42.8
2019-01-04T05:09:13.042Z,43.5
2019-01-04T05:10:13.110Z,44.1
2019-01-04T05:11:13.108Z,44.9
2019-01-04T05:12:13.129Z,45.4
2019-01-04T05:13:13.058Z,46.3
2019-01-04T05:14:13.054Z,46.9
2019-01-04T05:15:13.059Z,47.3
2019-01-04T05:16:13.107Z,47.8
2019-01-04T05:17:13.112Z,48
2019-01-04T05:18:13.050Z,48.4
2019-01-04T05:19:13.049Z,48.9
2019-01-04T05:20:13.050Z,49.1
2019-01-04T05:21:13.058Z,49.8
2019-01-04T05:22:13.025Z,49.8
2019-01-04T05:23:13.060Z,49.6
2019-01-04T05:24:13.039Z,49.3
2019-01-04T05:25:13.048Z,49.2
2019-01-04T05:26:13.051Z,49.7
2019-01-04T05:27:13.106Z,48.8
2019-01-04T05:28:13.052Z,49.2
2019-01-04T05:29:13.045Z,49.5
2019-01-04T05:30:13.036Z,49.1
2019-01-04T05:31:13.047Z,49
2019-01-04T05:32:13.101Z,49
2019-01-04T05:33:13.041Z,49.5
2019-01-04T05:34:13.035Z,49.8
2019-01-04T05:35:13.037Z,49.9
2019-01-04T05:36:13.054Z,49.1
2019-01-04T05:37:13.103Z,48.4
2019-01-04T05:38:13.089Z,48.3
2019-01-04T05:39:13.054Z,48.2
2019-01-04T05:40:14.054Z,47.9
2019-01-04T05:41:13.049Z,47.3
2019-01-04T05:42:13.093Z,46.9
2019-01-04T05:43:13.025Z,47.1
2019-01-04T05:44:13.092Z,47
2019-01-04T05:45:13.112Z,47.3
2019-01-04T05:46:13.042Z,47.1
2019-01-04T05:47:13.115Z,46.9
2019-01-04T05:48:13.040Z,47.2
2019-01-04T05:49:13.014Z,46.6
2019-01-04T05:50:13.035Z,46.9
2019-01-04T05:51:13.038Z,46.9
2019-01-04T05:52:13.119Z,46.9
2019-01-04T05:53:13.032Z,46.9
2019-01-04T05:54:13.026Z,46.7
2019-01-04T05:55:13.026Z,45.9
2019-01-04T05:56:13.103Z,45.8
2019-01-04T05:57:13.103Z,45.7
2019-01-04T05:58:13.102Z,46.1
2019-01-04T05:59:13.037Z,46.6
2019-01-04T06:00:13.025Z,46.9
2019-01-04T06:01:13.032Z,47.4
2019-01-04T06:02:13.099Z,47.7
2019-01-04T06:03:13.032Z,47.8
2019-01-04T06:04:13.031Z,48.1
2019-01-04T06:05:13.078Z,48.6
2019-01-04T06:06:13.025Z,48.7
2019-01-04T06:07:13.016Z,49.2
2019-01-04T06:08:13.024Z,49.4
2019-01-04T06:09:13.031Z,49.9
2019-01-04T06:10:13.096Z,50
2019-01-04T06:11:13.021Z,49.6
2019-01-04T06:12:13.083Z,49.5
2019-01-04T06:13:13.025Z,49.3
2019-01-04T06:14:13.029Z,48.5
2019-01-04T06:15:13.022Z,47.9
2019-01-04T06:16:13.014Z,47.7
2019-01-04T06:17:13.090Z,47.4
2019-01-04T06:18:13.026Z,47.6
2019-01-04T06:19:13.025Z,48.1
2019-01-04T06:20:13.034Z,48.5
2019-01-04T06:21:13.022Z,47.8
2019-01-04T06:22:13.163Z,48.2
2019-01-04T06:23:13.034Z,48.3
2019-01-04T06:24:13.021Z,47.7
2019-01-04T06:25:13.037Z,47.5
2019-01-04T06:26:13.017Z,47.8
2019-01-04T06:27:13.052Z,48.1
2019-01-04T06:28:13.023Z,48.5
2019-01-04T06:29:13.089Z,48.3
2019-01-04T06:30:13.018Z,48.3
2019-01-04T06:32:13.636Z,4.8
2019-01-04T06:33:13.702Z,8.7
2019-01-04T06:34:13.714Z,12.8
2019-01-04T06:35:13.742Z,16.7
2019-01-04T06:36:13.664Z,19.5
2019-01-04T06:37:13.664Z,21.9
2019-01-04T06:38:13.641Z,24.1
2019-01-04T06:39:13.659Z,26.1
2019-01-04T06:40:13.723Z,28
2019-01-04T06:41:13.661Z,29.9
2019-01-04T06:42:13.657Z,31.7
2019-01-04T06:43:13.654Z,33.5
2019-01-04T06:44:13.712Z,34.5
2019-01-04T06:45:13.656Z,35.1
2019-01-04T06:46:13.731Z,35.9
2019-01-04T06:47:13.652Z,36.4
2019-01-04T06:48:13.655Z,36.8
2019-01-04T06:49:13.651Z,37.7
2019-01-04T06:50:13.657Z,38.9
2019-01-04T06:51:13.708Z,39
2019-01-04T06:52:13.654Z,39
2019-01-04T06:53:13.705Z,39.3
2019-01-04T06:54:13.639Z,40
2019-01-04T06:55:13.644Z,40.4
2019-01-04T06:56:13.652Z,41.4
2019-01-04T06:57:13.703Z,42.1
2019-01-04T06:58:13.656Z,42.8
2019-01-04T06:59:13.726Z,43.2
2019-01-04T07:00:13.641Z,43.5
2019-01-04T07:01:13.655Z,44.1
2019-01-04T07:02:13.648Z,44.3
2019-01-04T07:03:13.712Z,44.3
2019-01-04T07:04:13.653Z,44.9
2019-01-04T07:05:13.627Z,45.2
2019-01-04T07:06:13.710Z,44.9
2019-01-04T07:07:13.655Z,44.9
2019-01-04T07:08:13.653Z,44.5
2019-01-04T07:09:13.650Z,45.2
2019-01-04T07:10:13.651Z,45.7
2019-01-04T07:11:13.694Z,46.4
2019-01-04T07:12:13.647Z,46.9
2019-01-04T07:13:13.649Z,47.3
2019-01-04T07:14:13.649Z,47.9
2019-01-04T07:15:13.644Z,48.5
2019-01-04T07:16:13.699Z,49
2019-01-04T07:17:13.634Z,49
2019-01-04T07:18:13.641Z,49.3
2019-01-04T07:19:13.648Z,49.9
2019-01-04T07:20:13.646Z,50.7
2019-01-04T07:21:13.749Z,51
2019-01-04T07:22:13.659Z,51.5
2019-01-04T07:23:13.640Z,52
2019-01-04T07:24:13.655Z,52.1
2019-01-04T07:25:13.632Z,52.5
2019-01-04T07:26:13.705Z,53.1
2019-01-04T07:27:13.624Z,52.6
2019-01-04T07:28:13.634Z,52
2019-01-04T07:29:13.704Z,51.7
2019-01-04T07:30:13.630Z,51.2
2019-01-04T07:31:13.662Z,51.2
2019-01-04T07:32:13.625Z,51.2
2019-01-04T07:33:13.681Z,51.1
2019-01-04T07:34:13.644Z,51.4
2019-01-04T07:35:13.639Z,51.2
2019-01-04T07:36:13.629Z,50.5
2019-01-04T07:37:13.716Z,50.3
2019-01-04T07:38:13.613Z,50
2019-01-04T07:39:13.741Z,49.5
2019-01-04T07:40:13.630Z,49.2
2019-01-04T07:41:13.641Z,49.7
2019-01-04T07:42:13.619Z,49.6
2019-01-04T07:43:16.515Z,49.8
2019-01-04T07:44:13.711Z,49.8
2019-01-04T07:45:13.632Z,49.4
2019-01-04T07:46:13.634Z,48.9
2019-01-04T07:47:13.640Z,48.6
2019-01-04T07:48:13.634Z,47.7
2019-01-04T07:49:13.683Z,46.9
2019-01-04T07:50:13.623Z,46.7
2019-01-04T07:51:13.703Z,45.9
2019-01-04T07:52:13.642Z,45.5
2019-01-04T07:53:13.618Z,45.7
2019-01-04T07:54:13.624Z,45.8
2019-01-04T07:55:13.629Z,45.3
2019-01-04T07:56:13.688Z,44.2
2019-01-04T07:57:13.625Z,43.9
2019-01-04T07:58:13.627Z,43.3
2019-01-04T07:59:13.630Z,42.7
2019-01-04T08:00:13.653Z,42.4
2019-01-04T08:01:13.630Z,41.9
2019-01-04T08:02:13.689Z,41.7
2019-01-04T08:03:13.629Z,42.1
2019-01-04T08:04:13.619Z,42
2019-01-04T08:05:13.613Z,42
2019-01-04T08:06:13.626Z,42.5
2019-01-04T08:07:13.690Z,42.7
2019-01-04T08:08:13.612Z,42.9
2019-01-04T08:09:13.618Z,43.4
2019-01-04T08:10:13.605Z,44
2019-01-04T08:11:13.678Z,44.2
2019-01-04T08:12:13.612Z,44.5
2019-01-04T08:13:13.610Z,44.7
2019-01-04T08:14:13.621Z,44.4
2019-01-04T08:15:13.682Z,44.9
2019-01-04T08:16:13.601Z,44.5
2019-01-04T08:17:13.619Z,44
2019-01-04T08:18:13.682Z,43.5
2019-01-04T08:19:13.618Z,42.8
2019-01-04T08:20:13.608Z,42.4
2019-01-04T08:21:13.602Z,41.6
2019-01-04T08:22:13.714Z,40.5
2019-01-04T08:23:13.674Z,39.7
2019-01-04T08:24:13.593Z,39.1
2019-01-04T08:25:13.669Z,38.4
2019-01-04T08:26:13.597Z,37.8
2019-01-04T08:27:13.599Z,36.9
2019-01-04T08:28:13.681Z,36
2019-01-04T08:29:13.594Z,35.7
2019-01-04T08:30:13.613Z,35.1
2019-01-04T08:31:13.602Z,34.5
2019-01-04T08:32:13.595Z,33.5
2019-01-04T08:33:13.686Z,32.4
2019-01-04T08:34:13.609Z,31.2
2019-01-04T08:35:13.626Z,30.1
2019-01-04T08:36:13.733Z,29.6
2019-01-04T08:37:13.585Z,28.7
2019-01-04T08:38:13.636Z,28.1
2019-01-04T08:39:13.608Z,26.9
2019-01-04T08:40:13.959Z,26.6
2019-01-04T08:41:13.679Z,26.3
2019-01-04T08:42:13.604Z,26.1
2019-01-04T08:43:13.651Z,26.1
2019-01-04T08:44:13.574Z,26
2019-01-04T08:45:13.588Z,26.3
2019-01-04T08:46:13.600Z,26.7
2019-01-04T08:47:13.656Z,26.6
2019-01-04T08:48:13.597Z,26.4
2019-01-04T08:49:13.584Z,26.3
2019-01-04T08:50:13.592Z,25.9
2019-01-04T08:51:13.667Z,26.4
2019-01-04T08:52:13.590Z,27.1
2019-01-04T08:53:13.598Z,27.6
2019-01-04T08:54:13.585Z,27.9
2019-01-04T08:55:13.594Z,28.5
2019-01-04T08:56:13.599Z,28.8
2019-01-04T08:57:13.667Z,28.9
2019-01-04T08:58:13.661Z,28.1
2019-01-04T08:59:13.665Z,28.2
2019-01-04T09:00:13.630Z,27.8
2019-01-04T09:01:13.586Z,28.1
2019-01-04T09:02:13.591Z,28.1
2019-01-04T09:03:13.584Z,27.9
2019-01-04T09:04:13.659Z,27.6
2019-01-04T09:05:13.577Z,27.3
2019-01-04T09:06:13.582Z,27.5
2019-01-04T09:07:13.580Z,27.9
2019-01-04T09:08:13.583Z,28.5
2019-01-04T09:09:14.071Z,28.7
2019-01-04T09:10:13.641Z,29.8
2019-01-04T09:11:13.635Z,29.8
2019-01-04T09:12:13.566Z,30.3
2019-01-04T09:13:13.650Z,30.5
2019-01-04T09:14:13.563Z,30.6
2019-01-04T09:15:13.580Z,31
2019-01-04T09:16:13.565Z,31.8
2019-01-04T09:17:13.572Z,32
2019-01-04T09:18:13.645Z,31.6
2019-01-04T09:19:13.582Z,31.9
2019-01-04T09:20:13.579Z,31.6
2019-01-04T09:21:13.569Z,31.7
2019-01-04T09:22:13.564Z,31.4
2019-01-04T09:23:13.642Z,30.6
2019-01-04T09:24:13.580Z,30.2
2019-01-04T09:25:13.644Z,31.1
2019-01-04T09:26:13.584Z,31
2019-01-04T09:27:13.561Z,30.7
2019-01-04T09:28:17.968Z,30
2019-01-04T09:29:13.572Z,29.4
2019-01-04T09:30:13.565Z,29.1
2019-01-04T09:31:13.566Z,28.6
2019-01-04T09:32:13.564Z,27.7
2019-01-04T09:33:13.635Z,26.8
2019-01-04T09:34:13.555Z,27
2019-01-04T09:35:13.578Z,26.7
2019-01-04T09:36:13.567Z,26.3
2019-01-04T09:37:13.566Z,25.7
2019-01-04T09:38:13.619Z,25.8
2019-01-04T09:39:13.571Z,25.3
2019-01-04T09:40:13.565Z,24.8
2019-01-04T09:41:13.617Z,25.4
2019-01-04T09:42:13.606Z,25.5
2019-01-04T09:43:13.565Z,25.1
2019-01-04T09:44:13.629Z,24.7
2019-01-04T09:45:13.547Z,25.1
2019-01-04T09:46:13.629Z,25.6
2019-01-04T09:47:13.604Z,25.9
2019-01-04T09:48:13.607Z,25.7
2019-01-04T09:49:15.168Z,25.1
2019-01-04T09:50:13.540Z,24.6
2019-01-04T09:51:13.601Z,25.1
2019-01-04T09:52:13.542Z,24.8
2019-01-04T09:53:13.563Z,24.6
2019-01-04T09:54:15.162Z,24.3
2019-01-04T09:55:13.595Z,25
2019-01-04T09:56:13.555Z,24.3
2019-01-04T09:57:13.564Z,24.6
2019-01-04T09:58:13.566Z,24.6
2019-01-04T09:59:13.529Z,24.7
2019-01-04T10:00:13.638Z,24.9
2019-01-04T10:01:13.555Z,25.2
2019-01-04T10:02:13.672Z,25.2
2019-01-04T10:03:14.262Z,25.2
2019-01-04T10:04:13.936Z,25.5
2019-01-04T10:05:15.865Z,25.3
2019-01-04T10:06:13.613Z,25.6
2019-01-04T10:07:13.554Z,25.7
2019-01-04T10:08:13.615Z,25.9
2019-01-04T10:09:13.539Z,25.4
2019-01-04T10:10:13.539Z,24.8
2019-01-04T10:11:13.529Z,24.4
2019-01-04T10:12:13.550Z,24.1
2019-01-04T10:13:13.610Z,23.3
2019-01-04T10:14:13.541Z,23
2019-01-04T10:15:13.538Z,22.4
2019-01-04T10:16:14.333Z,21.8
2019-01-04T10:17:13.566Z,21.9
2019-01-04T10:18:13.617Z,20.9
2019-01-04T10:19:15.060Z,21
2019-01-04T10:20:15.037Z,20.7
2019-01-04T10:21:13.568Z,20.3
2019-01-04T10:22:13.540Z,20.2
2019-01-04T10:23:13.613Z,19.4
2019-01-04T10:24:13.526Z,18.9
2019-01-04T10:25:13.521Z,18.3
2019-01-04T10:26:14.090Z,17.8
2019-01-04T10:27:13.528Z,17.7
2019-01-04T10:28:13.531Z,17.3
2019-01-04T10:29:13.590Z,16.9
2019-01-04T10:30:13.603Z,16.6
2019-01-04T10:31:13.528Z,16.3
2019-01-04T10:32:13.521Z,16.5
2019-01-04T10:33:13.525Z,16.3
2019-01-04T10:34:13.526Z,16.2
2019-01-04T10:35:13.599Z,16.2
2019-01-04T10:36:13.540Z,16.3
2019-01-04T10:37:13.515Z,16.4
2019-01-04T10:38:13.510Z,16.5
2019-01-04T10:39:13.613Z,16.4
2019-01-04T10:40:13.615Z,15.9
2019-01-04T10:41:13.541Z,16.2
2019-01-04T10:42:13.511Z,15.4
2019-01-04T10:43:13.513Z,16.1
2019-01-04T10:44:13.593Z,15.7
2019-01-04T10:45:13.531Z,15.4
2019-01-04T10:46:13.632Z,15.2
2019-01-04T10:47:13.522Z,15.4
2019-01-04T10:48:13.508Z,15.5
2019-01-04T10:49:13.515Z,16
2019-01-04T10:50:13.588Z,15.8
2019-01-04T10:51:13.522Z,15.7
2019-01-04T10:52:14.114Z,15.9
2019-01-04T10:53:13.571Z,15.9
2019-01-04T10:54:13.511Z,15.4
2019-01-04T10:55:13.576Z,15.7
2019-01-04T10:56:13.528Z,15.8
2019-01-04T10:57:13.526Z,15.5
2019-01-04T10:58:13.576Z,15.4
2019-01-04T10:59:13.577Z,15.1
2019-01-04T11:00:13.507Z,14.5
2019-01-04T11:01:13.548Z,14.1
2019-01-04T11:02:13.519Z,14
2019-01-04T11:03:13.568Z,13.7
2019-01-04T11:04:13.526Z,13.8
2019-01-04T11:05:13.501Z,14.2
2019-01-04T11:06:13.588Z,14.9
2019-01-04T11:07:13.521Z,15.2
2019-01-04T11:08:13.511Z,14.9
2019-01-04T11:09:13.523Z,14.3
2019-01-04T11:10:13.500Z,13.8
2019-01-04T11:11:13.553Z,14.1
2019-01-04T11:12:13.514Z,13.7
2019-01-04T11:13:13.512Z,13.4
2019-01-04T11:14:13.518Z,13.7
2019-01-04T11:15:13.590Z,13.9
2019-01-04T11:16:13.500Z,13.8
2019-01-04T11:17:13.515Z,13.7
2019-01-04T11:18:13.515Z,13.8
2019-01-04T11:19:13.575Z,13.1
2019-01-04T11:20:13.505Z,13.1
2019-01-04T11:21:13.489Z,13.5
2019-01-04T11:22:13.485Z,13.8
2019-01-04T11:23:13.563Z,13.4
2019-01-04T11:24:13.576Z,14
2019-01-04T11:25:13.507Z,14.1
2019-01-04T11:26:13.494Z,14.7
2019-01-04T11:27:13.499Z,15.2
2019-01-04T11:28:13.504Z,15.4
2019-01-04T11:29:13.543Z,16
2019-01-04T11:30:13.485Z,16.4
2019-01-04T11:31:13.557Z,16.9
2019-01-04T11:32:13.483Z,18.9
2019-01-04T11:33:13.509Z,20.4
2019-01-04T11:34:13.625Z,21.5
2019-01-04T11:35:13.490Z,22.5
2019-01-04T11:36:13.493Z,23.2
2019-01-04T11:37:13.479Z,24.5
2019-01-04T11:38:13.491Z,24.6
2019-01-04T11:39:13.560Z,25.3
2019-01-04T11:40:13.579Z,25.8
2019-01-04T11:41:13.495Z,26.6
2019-01-04T11:42:13.512Z,28
2019-01-04T11:43:13.485Z,29.4
2019-01-04T11:44:13.561Z,30.6
2019-01-04T11:45:13.500Z,31.2
2019-01-04T11:46:13.493Z,32
2019-01-04T11:47:13.500Z,32.5
2019-01-04T11:48:13.472Z,33.7
2019-01-04T11:49:13.560Z,34.2
2019-01-04T11:50:13.481Z,35.4
2019-01-04T11:51:13.490Z,36.3
2019-01-04T11:52:13.484Z,38
2019-01-04T11:53:13.482Z,38.5
2019-01-04T11:54:13.560Z,39.4
2019-01-04T11:55:13.560Z,39.6
2019-01-04T11:56:13.504Z,40.1
2019-01-04T11:57:13.490Z,40.2
2019-01-04T11:58:13.487Z,40
2019-01-04T11:59:13.476Z,40.5
2019-01-04T12:00:13.551Z,40.2
2019-01-04T12:01:13.491Z,39.6
2019-01-04T12:02:13.495Z,38.9
2019-01-04T12:03:13.482Z,38.3
2019-01-04T12:04:13.543Z,38.3
2019-01-04T12:05:13.531Z,36.6
2019-01-04T12:06:13.547Z,36.7
2019-01-04T12:07:13.480Z,36.3
2019-01-04T12:08:13.486Z,36.3
2019-01-04T12:09:13.483Z,36.8
2019-01-04T12:10:13.469Z,36.7
2019-01-04T12:11:13.545Z,37
2019-01-04T12:12:13.472Z,37.8
2019-01-04T12:13:13.491Z,39.2
2019-01-04T12:14:13.474Z,38.9
2019-01-04T12:15:13.479Z,38.7
2019-01-04T12:16:13.506Z,39
2019-01-04T12:17:13.565Z,40.3
2019-01-04T12:18:13.473Z,41.6
2019-01-04T12:19:13.479Z,42.3
2019-01-04T12:20:13.478Z,42.6
2019-01-04T12:21:13.450Z,42.9
2019-01-04T12:22:13.523Z,44.3
2019-01-04T12:23:13.460Z,44.5
2019-01-04T12:24:13.463Z,44.2
2019-01-04T12:25:13.472Z,44.6
2019-01-04T12:26:13.473Z,45.2
2019-01-04T12:27:13.499Z,45.5
2019-01-04T12:28:13.474Z,45.4
2019-01-04T12:29:13.473Z,45.6
2019-01-04T12:30:13.505Z,45.1
2019-01-04T12:31:13.473Z,44.3
2019-01-04T12:32:13.459Z,42.6
2019-01-04T12:33:15.893Z,41.5
2019-01-04T12:34:16.569Z,40
2019-01-04T12:35:13.687Z,38
2019-01-04T12:36:13.486Z,36.1
2019-01-04T12:37:13.532Z,34.3
2019-01-04T12:38:13.502Z,32.9
2019-01-04T12:39:13.592Z,31.3
2019-01-04T12:40:13.502Z,30.8
2019-01-04T12:41:13.458Z,29.9
2019-01-04T12:42:13.497Z,29.2
2019-01-04T12:43:13.513Z,29.4
2019-01-04T12:44:13.564Z,29
2019-01-04T12:45:13.480Z,28
2019-01-04T12:46:13.511Z,27.3
2019-01-04T12:47:13.579Z,26.7
2019-01-04T12:48:13.537Z,25.9
2019-01-04T12:49:13.489Z,25
2019-01-04T12:50:13.521Z,24.2
2019-01-04T12:51:13.506Z,24
2019-01-04T12:52:13.555Z,22.7
2019-01-04T12:53:13.493Z,22.1
2019-01-04T12:54:13.496Z,21.9
2019-01-04T12:55:13.512Z,22.3
2019-01-04T12:56:13.490Z,21.9
2019-01-04T12:57:13.570Z,22.3
2019-01-04T12:58:13.488Z,22.1
2019-01-04T12:59:13.442Z,22
2019-01-04T13:00:13.440Z,23
2019-01-04T13:01:13.431Z,22
2019-01-04T13:02:13.565Z,21.7
2019-01-04T13:03:13.528Z,21.5
2019-01-04T13:04:13.536Z,22.1
2019-01-04T13:05:13.475Z,21.5
2019-01-04T13:06:13.493Z,22.1
2019-01-04T13:07:13.487Z,21.9
2019-01-04T13:08:15.222Z,21.8
2019-01-04T13:09:13.480Z,21
2019-01-04T13:10:15.378Z,20.3
2019-01-04T13:11:13.455Z,20
2019-01-04T13:12:13.463Z,20.7
2019-01-04T13:13:13.472Z,21.2
2019-01-04T13:14:13.486Z,21.2
2019-01-04T13:15:13.550Z,20.7
2019-01-04T13:16:13.466Z,19.6
2019-01-04T13:17:13.495Z,20
2019-01-04T13:18:13.484Z,19.7
2019-01-04T13:19:13.550Z,21.2
2019-01-04T13:20:13.510Z,21.4
2019-01-04T13:21:13.433Z,21.7
2019-01-04T13:22:13.477Z,22.1
2019-01-04T13:23:13.522Z,22.1
2019-01-04T13:24:13.490Z,22.2
2019-01-04T13:25:13.553Z,22.7